Toyofujimaru No.2 — 7JDI — position and weather

sailwx.info

Track history (hours):
 
Tides and Currents Weather Stations Pressure Air Temp Water Temp Dewpoint Dewpoint Depression Visibility Wind Speed Wind Dir Waves Ship Positions

Toyofujimaru No.2

Last reported at 2016-Feb-09 02:32 UTC. Time now 2016-Feb-09 03:31 UTC.
Position N 35°23' E 139°39'.

Length 165 m; draft 5.9 m.

Type: Cargo ship. MMSI: 432667000.

Date/timePositionNaut miles runAvg speedWind from/ knotsBaromVisibWave heightAir tempDewpointWater temp
2016-Feb-09 02:32N 35°23' E 139°39'0 0.0
2016-Feb-09 01:32N 35°23' E 139°39'0 0.0
2016-Feb-09 00:32N 35°23' E 139°39'0 0.0
2016-Feb-08 23:32N 35°23' E 139°39'4 4.1
2016-Feb-08 22:33N 35°21' E 139°42'1313.1
2016-Feb-08 21:33N 35°08' E 139°46'1914.2
2016-Feb-08 20:15N 34°51' E 139°57'1217.4
2016-Feb-08 19:34N 34°57' E 140°09'1917.6
2016-Feb-08 18:30N 35°08' E 140°27'2019.1
2016-Feb-08 17:28N 35°24' E 140°42'1719.0
2016-Feb-08 16:33N 35°38' E 140°54'37 1.5
2016-Feb-07 15:23N 36°14' E 141°02'1517.5
2016-Feb-07 14:30N 35°59' E 140°60'1617.6
2016-Feb-07 13:33N 35°42' E 140°57'1817.9
2016-Feb-07 12:33N 35°27' E 140°46'1818.3
2016-Feb-07 11:33N 35°12' E 140°33'2020.2
2016-Feb-07 10:33N 34°59' E 140°14'2120.6
2016-Feb-07 09:32N 34°52' E 139°50'1717.3
2016-Feb-07 08:33N 35°08' E 139°45'1312.6
2016-Feb-07 07:33N 35°20' E 139°42'1010.3
2016-Feb-07 06:34N 35°30' E 139°46'0 0.0
2016-Feb-07 05:33N 35°30' E 139°46'0 0.0
2016-Feb-07 04:33N 35°30' E 139°46'0 0.0
2016-Feb-07 03:30N 35°30' E 139°46'0 0.0
2016-Feb-07 02:30N 35°30' E 139°46'3 3.3
2016-Feb-07 01:33N 35°29' E 139°42'6 6.4
2016-Feb-07 00:33N 35°23' E 139°39'0 0.0
2016-Feb-06 23:33N 35°23' E 139°39'0 0.0
2016-Feb-06 22:33N 35°23' E 139°39'4 4.1
2016-Feb-06 21:34N 35°21' E 139°43'1212.2
2016-Feb-06 20:34N 35°09' E 139°46'7317.7
2016-Feb-06 16:26N 34°27' E 138°33'3 0.1
2016-Feb-05 15:20N 34°30' E 138°31'5115.7
2016-Feb-05 12:06N 34°55' E 139°25'1217.5
2016-Feb-05 11:25N 35°02' E 139°37'1416.2
2016-Feb-05 10:34N 35°14' E 139°46'1111.4
2016-Feb-05 09:33N 35°23' E 139°39'0 0.2
2016-Feb-05 08:33N 35°23' E 139°39'0 0.0
2016-Feb-05 07:33N 35°23' E 139°39'0 0.0
2016-Feb-05 06:33N 35°23' E 139°39'0 0.0
2016-Feb-05 05:33N 35°23' E 139°39'0 0.0
2016-Feb-05 04:33N 35°23' E 139°39'0 0.0
2016-Feb-05 03:33N 35°23' E 139°39'0 0.0
2016-Feb-05 02:33N 35°23' E 139°39'0 0.0
2016-Feb-05 01:33N 35°23' E 139°39'8 7.6
2016-Feb-05 00:33N 35°18' E 139°45'1414.2
2016-Feb-04 23:33N 35°03' E 139°45'1514.7
2016-Feb-04 22:33N 34°52' E 139°56'1818.5
2016-Feb-04 21:34N 35°01' E 140°16'1717.1
2016-Feb-04 20:34N 35°12' E 140°32'1717.0
2016-Feb-04 19:33N 35°25' E 140°45'1717.0
2016-Feb-04 18:34N 35°40' E 140°55'2017.5
2016-Feb-04 17:23N 35°60' E 141°01'8 0.3
2016-Feb-03 14:33N 35°51' E 140°59'1918.9
2016-Feb-03 13:32N 35°33' E 140°51'2020.1
2016-Feb-03 12:33N 35°17' E 140°37'2019.6
2016-Feb-03 11:33N 35°02' E 140°21'2120.1
2016-Feb-03 10:31N 34°52' E 139°59'1616.3
2016-Feb-03 09:33N 34°59' E 139°42'1717.0
2016-Feb-03 08:33N 35°16' E 139°46'1212.2
2016-Feb-03 07:33N 35°28' E 139°46'2 2.4
2016-Feb-03 06:31N 35°30' E 139°45'0 0.0
2016-Feb-03 05:32N 35°30' E 139°45'0 0.0
2016-Feb-03 04:31N 35°30' E 139°45'0 0.0
2016-Feb-03 03:31N 35°30' E 139°45'0 0.1
2016-Feb-03 02:33N 35°30' E 139°45'8 8.0
2016-Feb-03 01:33N 35°23' E 139°40'1 1.1
2016-Feb-03 00:31N 35°23' E 139°39'0 0.0
2016-Feb-02 23:31N 35°23' E 139°39'0 0.0
2016-Feb-02 22:31N 35°23' E 139°39'0 0.0
2016-Feb-02 21:33N 35°23' E 139°39'5 4.8
2016-Feb-02 20:34N 35°20' E 139°43'1111.5
2016-Feb-02 19:33N 35°09' E 139°45'7617.3
2016-Feb-02 15:11N 34°26' E 138°29'70 2.3
2016-Feb-01 08:33N 35°06' E 139°38'1312.9
2016-Feb-01 07:33N 35°18' E 139°44'7 6.9
2016-Feb-01 06:33N 35°23' E 139°39'0 0.0
2016-Feb-01 05:33N 35°23' E 139°39'0 0.0
2016-Feb-01 04:33N 35°23' E 139°39'2 1.8
2016-Feb-01 03:33N 35°23' E 139°41'1212.3
2016-Feb-01 02:33N 35°12' E 139°47'1918.7
2016-Feb-01 01:33N 34°53' E 139°48'2119.0
2016-Feb-01 00:27N 34°60' E 140°13'2120.0
2016-Jan-31 23:25N 35°13' E 140°32'1720.2
2016-Jan-31 22:33N 35°27' E 140°45'50 1.9
2016-Jan-30 20:05N 36°15' E 141°02'1019.7
2016-Jan-30 19:33N 36°05' E 141°00'1919.0
2016-Jan-30 18:33N 35°46' E 140°57'1818.2
2016-Jan-30 17:33N 35°29' E 140°48'1918.8
2016-Jan-30 16:33N 35°14' E 140°35'1717.2
2016-Jan-30 15:33N 35°02' E 140°19'1817.8
2016-Jan-30 14:33N 34°54' E 140°00'1515.5
2016-Jan-30 13:33N 34°60' E 139°43'1716.6
2016-Jan-30 12:33N 35°16' E 139°46'1110.9
2016-Jan-30 11:33N 35°27' E 139°46'3 3.4
2016-Jan-30 10:32N 35°30' E 139°45'0 0.0
2016-Jan-30 09:32N 35°30' E 139°45'0 0.0
2016-Jan-30 08:32N 35°30' E 139°45'0 0.0
2016-Jan-30 07:32N 35°30' E 139°45'0 0.0
2016-Jan-30 06:32N 35°30' E 139°45'3 2.7
2016-Jan-30 05:33N 35°29' E 139°42'6 6.4
2016-Jan-30 04:34N 35°23' E 139°39'0 0.0
2016-Jan-30 03:31N 35°23' E 139°39'  
Track history (hours):
 
Tides and Currents Weather Stations Pressure Air Temp Water Temp Dewpoint Dewpoint Depression Visibility Wind Speed Wind Dir Waves Ship Positions

Toyofujimaru No.2

Last reported at 2016-Feb-09 02:32 UTC. Time now 2016-Feb-09 03:31 UTC.
Position N 35°23' E 139°39'.

Length 165 m; draft 5.9 m.

Type: Cargo ship. MMSI: 432667000.

Date/timePositionNaut miles runAvg speedWind from/ knotsBaromVisibWave heightAir tempDewpointWater temp
2016-Feb-09 02:32N 35°23' E 139°39'0 0.0
2016-Feb-09 01:32N 35°23' E 139°39'0 0.0
2016-Feb-09 00:32N 35°23' E 139°39'0 0.0
2016-Feb-08 23:32N 35°23' E 139°39'4 4.1
2016-Feb-08 22:33N 35°21' E 139°42'1313.1
2016-Feb-08 21:33N 35°08' E 139°46'1914.2
2016-Feb-08 20:15N 34°51' E 139°57'1217.4
2016-Feb-08 19:34N 34°57' E 140°09'1917.6
2016-Feb-08 18:30N 35°08' E 140°27'2019.1
2016-Feb-08 17:28N 35°24' E 140°42'1719.0
2016-Feb-08 16:33N 35°38' E 140°54'37 1.5
2016-Feb-07 15:23N 36°14' E 141°02'1517.5
2016-Feb-07 14:30N 35°59' E 140°60'1617.6
2016-Feb-07 13:33N 35°42' E 140°57'1817.9
2016-Feb-07 12:33N 35°27' E 140°46'1818.3
2016-Feb-07 11:33N 35°12' E 140°33'2020.2
2016-Feb-07 10:33N 34°59' E 140°14'2120.6
2016-Feb-07 09:32N 34°52' E 139°50'1717.3
2016-Feb-07 08:33N 35°08' E 139°45'1312.6
2016-Feb-07 07:33N 35°20' E 139°42'1010.3
2016-Feb-07 06:34N 35°30' E 139°46'0 0.0
2016-Feb-07 05:33N 35°30' E 139°46'0 0.0
2016-Feb-07 04:33N 35°30' E 139°46'0 0.0
2016-Feb-07 03:30N 35°30' E 139°46'0 0.0
2016-Feb-07 02:30N 35°30' E 139°46'3 3.3
2016-Feb-07 01:33N 35°29' E 139°42'6 6.4
2016-Feb-07 00:33N 35°23' E 139°39'0 0.0
2016-Feb-06 23:33N 35°23' E 139°39'0 0.0
2016-Feb-06 22:33N 35°23' E 139°39'4 4.1
2016-Feb-06 21:34N 35°21' E 139°43'1212.2
2016-Feb-06 20:34N 35°09' E 139°46'7317.7
2016-Feb-06 16:26N 34°27' E 138°33'3 0.1
2016-Feb-05 15:20N 34°30' E 138°31'5115.7
2016-Feb-05 12:06N 34°55' E 139°25'1217.5
2016-Feb-05 11:25N 35°02' E 139°37'1416.2
2016-Feb-05 10:34N 35°14' E 139°46'1111.4
2016-Feb-05 09:33N 35°23' E 139°39'0 0.2
2016-Feb-05 08:33N 35°23' E 139°39'0 0.0
2016-Feb-05 07:33N 35°23' E 139°39'0 0.0
2016-Feb-05 06:33N 35°23' E 139°39'0 0.0
2016-Feb-05 05:33N 35°23' E 139°39'0 0.0
2016-Feb-05 04:33N 35°23' E 139°39'0 0.0
2016-Feb-05 03:33N 35°23' E 139°39'0 0.0
2016-Feb-05 02:33N 35°23' E 139°39'0 0.0
2016-Feb-05 01:33N 35°23' E 139°39'8 7.6
2016-Feb-05 00:33N 35°18' E 139°45'1414.2
2016-Feb-04 23:33N 35°03' E 139°45'1514.7
2016-Feb-04 22:33N 34°52' E 139°56'1818.5
2016-Feb-04 21:34N 35°01' E 140°16'1717.1
2016-Feb-04 20:34N 35°12' E 140°32'1717.0
2016-Feb-04 19:33N 35°25' E 140°45'1717.0
2016-Feb-04 18:34N 35°40' E 140°55'2017.5
2016-Feb-04 17:23N 35°60' E 141°01'8 0.3
2016-Feb-03 14:33N 35°51' E 140°59'1918.9
2016-Feb-03 13:32N 35°33' E 140°51'2020.1
2016-Feb-03 12:33N 35°17' E 140°37'2019.6
2016-Feb-03 11:33N 35°02' E 140°21'2120.1
2016-Feb-03 10:31N 34°52' E 139°59'1616.3
2016-Feb-03 09:33N 34°59' E 139°42'1717.0
2016-Feb-03 08:33N 35°16' E 139°46'1212.2
2016-Feb-03 07:33N 35°28' E 139°46'2 2.4
2016-Feb-03 06:31N 35°30' E 139°45'0 0.0
2016-Feb-03 05:32N 35°30' E 139°45'0 0.0
2016-Feb-03 04:31N 35°30' E 139°45'0 0.0
2016-Feb-03 03:31N 35°30' E 139°45'0 0.1
2016-Feb-03 02:33N 35°30' E 139°45'8 8.0
2016-Feb-03 01:33N 35°23' E 139°40'1 1.1
2016-Feb-03 00:31N 35°23' E 139°39'0 0.0
2016-Feb-02 23:31N 35°23' E 139°39'0 0.0
2016-Feb-02 22:31N 35°23' E 139°39'0 0.0
2016-Feb-02 21:33N 35°23' E 139°39'5 4.8
2016-Feb-02 20:34N 35°20' E 139°43'1111.5
2016-Feb-02 19:33N 35°09' E 139°45'7617.3
2016-Feb-02 15:11N 34°26' E 138°29'70 2.3
2016-Feb-01 08:33N 35°06' E 139°38'1312.9
2016-Feb-01 07:33N 35°18' E 139°44'7 6.9
2016-Feb-01 06:33N 35°23' E 139°39'0 0.0
2016-Feb-01 05:33N 35°23' E 139°39'0 0.0
2016-Feb-01 04:33N 35°23' E 139°39'2 1.8
2016-Feb-01 03:33N 35°23' E 139°41'1212.3
2016-Feb-01 02:33N 35°12' E 139°47'1918.7
2016-Feb-01 01:33N 34°53' E 139°48'2119.0
2016-Feb-01 00:27N 34°60' E 140°13'2120.0
2016-Jan-31 23:25N 35°13' E 140°32'1720.2
2016-Jan-31 22:33N 35°27' E 140°45'50 1.9
2016-Jan-30 20:05N 36°15' E 141°02'1019.7
2016-Jan-30 19:33N 36°05' E 141°00'1919.0
2016-Jan-30 18:33N 35°46' E 140°57'1818.2
2016-Jan-30 17:33N 35°29' E 140°48'1918.8
2016-Jan-30 16:33N 35°14' E 140°35'1717.2
2016-Jan-30 15:33N 35°02' E 140°19'1817.8
2016-Jan-30 14:33N 34°54' E 140°00'1515.5
2016-Jan-30 13:33N 34°60' E 139°43'1716.6
2016-Jan-30 12:33N 35°16' E 139°46'1110.9
2016-Jan-30 11:33N 35°27' E 139°46'3 3.4
2016-Jan-30 10:32N 35°30' E 139°45'0 0.0
2016-Jan-30 09:32N 35°30' E 139°45'0 0.0
2016-Jan-30 08:32N 35°30' E 139°45'0 0.0
2016-Jan-30 07:32N 35°30' E 139°45'0 0.0
2016-Jan-30 06:32N 35°30' E 139°45'3 2.7
2016-Jan-30 05:33N 35°29' E 139°42'6 6.4
2016-Jan-30 04:34N 35°23' E 139°39'0 0.0
2016-Jan-30 03:31N 35°23' E 139°39'  

Dump ship's entire track history